• Join FlightAware (Why Join?)
  • Login
  • US Flag 
01:17AM EST


 

Airport Tracker/Info


-or-


 

Live Flight TrackerFlight Track Log ✈ VNR160 ✈ 19-Apr-2013 ✈ KISM - KCAK

Flight Track Log - Related Links

Times and Time Zones

All times are in EDT time to prevent confusion due to time zone crossing. See the VNR160 flight status page for this flight to view local times or setup timezone preferences in your user account.

Time Position Orientation Groundspeed Altitude Reporting Facility
EDT Latitude Longitude Course Direction KTS MPH feet Rate Location/Type
09:39AM 28.2833 -81.4333 240° Southwest 148 170 700  Level Orlando TRACON
09:40AM 28.2667 -81.4667 240° Southwest 190 219 2,000 960 Climbing Orlando TRACON
09:41AM 28.2833 -81.5500 283° West 249 287 2,700 1,380 Climbing Orlando TRACON
09:42AM 28.3333 -81.5667 344° North 209 241 4,900 2,100 Climbing Orlando TRACON
09:42AM 28.4000 -81.5667 360° North 213 245 6,700 1,800 Climbing Orlando TRACON
09:44AM 28.4667 -81.5833 348° North 235 270 8,600 1,620 Climbing Orlando TRACON
09:45AM 28.5333 -81.5667 12° North 246 283 10,200 1,620 Climbing Orlando TRACON
09:45AM 28.5833 -81.5500 16° North 245 282 11,800 900 Climbing Orlando TRACON
09:46AM 28.6667 -81.5167 19° North 301 346 12,000 300 Climbing Orlando TRACON
09:48AM 28.8056 -81.4639 18° North 339 390 12,800 660 Climbing Jacksonville Center
09:49AM 28.8681 -81.4392 19° North 313 360 14,000 1,320 Climbing Jacksonville Center
09:50AM 28.9492 -81.4119 16° North 286 329 15,500 1,500 Climbing Jacksonville Center
09:51AM 29.0264 -81.4131 359° North 274 315 17,000 1,440 Climbing Jacksonville Center
09:52AM 29.1014 -81.4119 North 274 315 18,400 1,440 Climbing Jacksonville Center
09:53AM 29.1767 -81.4133 359° North 274 315 19,900 1,500 Climbing Jacksonville Center
09:54AM 29.2497 -81.4144 359° North 274 315 21,400 1,500 Climbing Jacksonville Center
09:55AM 29.3269 -81.4133 North 268 308 22,900 1,500 Climbing Jacksonville Center
09:56AM 29.4000 -81.4100 North 268 308 24,500 1,500 Climbing Jacksonville Center
09:57AM 29.4708 -81.4136 357° North 263 303 25,900 1,260 Climbing Jacksonville Center
09:58AM 29.5461 -81.4125 North 247 284 27,100 1,080 Climbing Jacksonville Center
09:59AM 29.6192 -81.4114 North 252 290 28,100 960 Climbing Jacksonville Center
10:00AM 29.6922 -81.4103 North 252 290 29,100 900 Climbing Jacksonville Center
10:01AM 29.7631 -81.4117 359° North 252 290 29,900 540 Climbing Jacksonville Center
10:02AM 29.8361 -81.4106 North 252 290 30,200 420 Climbing Jacksonville Center
10:03AM 29.9175 -81.4092 North 264 304 30,800 660 Climbing Jacksonville Center
10:04AM 29.9947 -81.4081 North 275 316 31,600 780 Climbing Jacksonville Center
10:05AM 30.0700 -81.4092 359° North 275 316 32,400 540 Climbing Jacksonville Center
10:06AM 30.1472 -81.4081 North 270 311 32,700 300 Climbing Jacksonville Center
10:07AM 30.2308 -81.4092 359° North 275 316 33,000 120 Climbing Jacksonville Center
10:08AM 30.3142 -81.4081 North 282 325 33,000  Level Jacksonville Center
10:09AM 30.4039 -81.4064 North 300 345 33,000  Level Jacksonville Center
10:10AM 30.4958 -81.4075 359° North 315 362 33,000  Level Jacksonville Center
10:11AM 30.5878 -81.4086 359° North 327 376 33,000  Level Jacksonville Center
10:12AM 30.6839 -81.4069 North 332 382 33,000  Level Jacksonville Center
10:13AM 30.7797 -81.4081 359° North 332 382 33,000  Level Jacksonville Center
10:14AM 30.8758 -81.4064 North 337 388 33,000  Level Jacksonville Center
10:15AM 30.9719 -81.4072 360° North 342 394 33,000  Level Jacksonville Center
10:16AM 31.0681 -81.4058 North 342 394 33,000  Level Jacksonville Center
10:17AM 31.1661 -81.4092 358° North 347 399 33,000  Level Jacksonville Center
10:18AM 31.2642 -81.4075 North 347 399 33,000  Level Jacksonville Center
10:19AM 31.3497 -81.4061 North 342 394 33,000  Level Jacksonville Center
10:20AM 31.4564 -81.4044 North 347 399 33,000  Level Jacksonville Center
10:21AM 31.5564 -81.4053 360° North 347 399 33,000  Level Jacksonville Center
10:22AM 31.6483 -81.4064 359° North 354 407 33,000  Level Jacksonville Center
10:23AM 31.7547 -81.4047 North 354 407 33,000  Level Jacksonville Center
10:24AM 31.8550 -81.4056 360° North 354 407 33,000  Level Jacksonville Center
10:25AM 31.9450 -81.4064 360° North 354 407 33,000  Level Jacksonville Center
10:26AM 32.0556 -81.4072 360° North 354 407 33,000  Level Jacksonville Center
10:27AM 32.1558 -81.4103 359° North 354 407 33,000  Level Jacksonville Center
10:28AM 32.2497 -81.4089 North 365 420 33,000  Level Jacksonville Center
10:29AM 32.3603 -81.4069 North 365 420 33,000  Level Jacksonville Center
10:30AM 32.4522 -81.4056 North 360 414 33,000  Level Jacksonville Center
10:31AM 32.5628 -81.4039 North 369 425 33,000  Level Jacksonville Center
10:32AM 32.6650 -81.4044 360° North 367 422 33,000  Level Jacksonville Center
10:33AM 32.7547 -81.4031 North 362 417 33,000  Level Jacksonville Center
10:34AM 32.8572 -81.4039 360° North 362 417 33,000  Level Jacksonville Center
10:35AM 32.9614 -81.4022 North 362 417 33,000  Level Jacksonville Center
10:36AM 33.0617 -81.4031 360° North 362 417 33,000  Level Jacksonville Center
10:37AM 33.1597 -81.4014 North 362 417 33,000  Level Jacksonville Center
10:38AM 33.2600 -81.3972 North 356 410 33,000  Level Jacksonville Center
10:39AM 33.3558 -81.3981 360° North 351 404 33,000  Level Jacksonville Center
10:40AM 33.4581 -81.3989 360° North 351 404 33,000 -120 Level Jacksonville Center
10:41AM 33.5583 -81.3972 North 351 404 32,800 -900 Descending Jacksonville Center
10:42AM 33.6669 -81.3978 360° North 363 418 31,300 -900 Descending Jacksonville Center
10:43AM 33.7753 -81.3958 North 378 435 31,000 -180 Descending Jacksonville Center
10:44AM 33.8964 -81.3964 360° North 393 452 31,000 -300 Level Jacksonville Center
10:45AM 34.0050 -81.3944 North 393 452 30,400 -540 Descending Jacksonville Center
10:46AM 34.1175 -81.3975 359° North 393 452 30,000 -480 Descending Jacksonville Center
10:48AM 34.2542 -81.3950 North 383 441 29,400 -480 Descending Atlanta Center
10:49AM 34.3689 -81.3964 359° North 388 447 29,000 -240 Descending Atlanta Center
10:50AM 34.4775 -81.3956 360° North 388 447 29,000  Level Atlanta Center
10:51AM 34.5964 -81.3942 North 382 440 29,000  Level Atlanta Center
10:52AM 34.7008 -81.3986 358° North 382 440 29,000  Level Atlanta Center
10:53AM 34.8094 -81.3978 360° North 382 440 29,000  Level Atlanta Center
10:54AM 34.9136 -81.3969 360° North 382 440 29,000  Level Atlanta Center
10:55AM 35.0222 -81.3958 360° North 382 440 29,000  Level Atlanta Center
10:56AM 35.1306 -81.3950 360° North 382 440 29,000  Level Atlanta Center
10:57AM 35.2244 -81.3947 360° North 382 440 29,000  Level Atlanta Center
10:58AM 35.3331 -81.3961 359° North 388 447 29,000  Level Atlanta Center
10:59AM 35.4414 -81.3953 360° North 383 441 29,000  Level Atlanta Center
11:00AM 35.5481 -81.3994 358° North 388 447 29,000  Level Atlanta Center
11:01AM 35.6731 -81.3981 North 393 452 29,000  Level Atlanta Center
11:02AM 35.7836 -81.3944 North 393 452 29,000  Level Atlanta Center
11:03AM 35.8919 -81.3908 North 393 452 29,000  Level Atlanta Center
11:04AM 36.0025 -81.3900 360° North 393 452 29,000  Level Atlanta Center
11:05AM 36.1111 -81.3914 359° North 393 452 29,000  Level Atlanta Center
11:06AM 36.2092 -81.3908 360° North 393 452 29,000  Level Atlanta Center
11:07AM 36.3258 -81.3894 North 399 459 29,000  Level Atlanta Center
11:08AM 36.4364 -81.3911 359° North 399 459 29,000  Level Atlanta Center
11:09AM 36.5489 -81.3872 North 404 465 29,000  Level Atlanta Center
11:10AM 36.6636 -81.3861 360° North 404 465 29,000  Level Atlanta Center
11:11AM 36.7636 -81.3853 360° North 404 465 29,000  Level Atlanta Center
11:12AM 36.8950 -81.3889 359° North 396 456 29,000  Level Atlanta Center
11:14AM 37.1406 -81.3903 360° North 407 468 29,000  Level Indianapolis Center
11:15AM 37.2533 -81.3931 359° North 406 467 29,000  Level Indianapolis Center
11:16AM 37.3681 -81.3944 359° North 409 471 29,000  Level Indianapolis Center
11:17AM 37.4783 -81.3961 359° North 407 468 29,000  Level Indianapolis Center
11:18AM 37.5906 -81.3967 360° North 412 474 29,000  Level Indianapolis Center
11:19AM 37.7258 -81.3961 360° North 414 476 29,000  Level Indianapolis Center
11:20AM 37.8378 -81.3939 North 413 475 29,000  Level Indianapolis Center
11:21AM 37.9656 -81.3928 360° North 420 483 29,000  Level Indianapolis Center
11:22AM 38.0819 -81.3917 360° North 419 482 29,000  Level Indianapolis Center
11:23AM 38.2000 -81.3897 North 422 486 29,000  Level Indianapolis Center
11:24AM 38.3186 -81.3886 360° North 422 486 29,000  Level Indianapolis Center
11:25AM 38.4347 -81.3872 North 423 487 29,000 -300 Level Indianapolis Center
11:26AM 38.5528 -81.3844 North 425 489 28,400 -540 Descending Indianapolis Center
11:27AM 38.6992 -81.3839 360° North 445 512 28,000 -240 Descending Indianapolis Center
11:28AM 38.8175 -81.3822 North 434 499 28,000  Level Indianapolis Center
11:29AM 38.9364 -81.3806 North 432 497 28,000  Level Indianapolis Center
11:30AM 39.0553 -81.3797 360° North 430 495 28,000 -540 Level Indianapolis Center
11:31AM 39.1769 -81.3786 360° North 437 503 26,900 -1,140 Descending Indianapolis Center
11:32AM 39.3061 -81.3769 North 459 528 25,700 -1,380 Descending Indianapolis Center
11:33AM 39.4303 -81.3758 360° North 451 519 24,100 -1,800 Descending Indianapolis Center
11:34AM 39.5436 -81.3394 14° North 427 491 22,500 -1,680 Descending Cleveland Center
11:35AM 39.6603 -81.3247 North 421 484 21,100 -1,380 Descending Cleveland Center
11:36AM 39.7625 -81.3364 355° North 392 451 19,800 -1,980 Descending Cleveland Center
11:37AM 39.8561 -81.3458 356° North 356 410 17,200 -2,520 Descending Cleveland Center
11:37AM 39.8789 -81.3469 358° North 337 388 16,600 -2,220 Descending Indianapolis Center
11:38AM 39.9736 -81.3561 356° North 346 398 14,300 -2,100 Descending Indianapolis Center
11:39AM 40.0714 -81.3667 355° North 351 404 12,400 -1,800 Descending Indianapolis Center
11:40AM 40.1289 -81.3733 355° North 340 391 11,300 -1,680 Descending Cleveland Center
11:41AM 40.2144 -81.3825 355° North 298 343 9,700 -1,200 Descending Cleveland Center
11:42AM 40.2936 -81.3914 355° North 289 333 8,900 -360 Descending Cleveland Center
11:43AM 40.3789 -81.3953 358° North 289 333 9,000  Climbing Cleveland Center
11:44AM 40.4561 -81.4017 356° North 289 333 9,000 -720 Level Cleveland Center
11:45AM 40.5375 -81.3836 10° North 289 333 7,600 -1,500 Descending Cleveland Center
11:46AM 40.6128 -81.3597 14° North 283 326 6,100 -1,500 Descending Cleveland Center
11:47AM 40.6858 -81.3306 17° North 275 316 4,700 -1,380 Descending Cleveland Center
11:48AM 40.7508 -81.3011 19° North 257 296 3,400 -900 Descending Cleveland Center
11:49AM 40.8092 -81.2744 19° North 233 268 3,000 -240 Descending Cleveland Center
11:50AM 40.8697 -81.2503 17° North 227 261 3,000  Level Cleveland Center
11:52AM 40.9000 -81.4333 North  Level FlightAware Approximate
11:59AM 40.9151 -81.4436 North  Level Estimated
12:00PM 40.9151 -81.4436 North  Level Estimated
12:01PM 40.9151 -81.4436 North  Level Estimated